Time;durP1;ratioP1;P1;durP2;ratioP2;P2;SDS_P1;SDS_P2;PMS_P1;PMS_P2;Temp;Humidity;BMP_temperature;BMP_pressure;BME280_temperature;BME280_humidity;BME280_pressure;Samples;Min_cycle;Max_cycle;Signal;HPM_P1;HPM_P2
2022/08/13 00:01:37;;;;;;;1.65;0.77;;;25.70;40.10;;;;;;5030454;28;20587;-40
2022/08/13 00:04:14;;;;;;;1.77;0.85;;;25.60;40.00;;;;;;5031253;28;20037;-41
2022/08/13 00:09:09;;;;;;;1.00;0.80;;;25.60;40.00;;;;;;5029571;28;20075;-45
2022/08/13 00:14:23;;;;;;;1.38;0.82;;;25.60;40.00;;;;;;5037733;28;20052;-42
2022/08/13 00:16:50;;;;;;;1.17;0.90;;;25.70;40.30;;;;;;5050576;28;20061;-40
2022/08/13 00:19:16;;;;;;;1.58;1.00;;;25.70;40.20;;;;;;5049912;28;20090;-40
2022/08/13 00:21:42;;;;;;;1.00;0.80;;;25.70;40.20;;;;;;5050726;28;20034;-41
2022/08/13 00:24:08;;;;;;;1.38;0.90;;;25.70;40.30;;;;;;5052857;28;20032;-46
2022/08/13 00:26:33;;;;;;;2.17;1.00;;;25.70;40.10;;;;;;5051117;28;20036;-41
2022/08/13 00:29:00;;;;;;;0.70;0.70;;;25.70;40.20;;;;;;5050237;28;20500;-41
2022/08/13 00:31:27;;;;;;;1.08;0.90;;;25.70;40.20;;;;;;5048520;28;20123;-41
2022/08/13 00:33:54;;;;;;;2.22;0.80;;;25.70;40.20;;;;;;5048106;28;20184;-43
2022/08/13 00:36:21;;;;;;;0.90;0.80;;;25.70;40.30;;;;;;5049498;28;20029;-40
2022/08/13 00:38:50;;;;;;;1.00;0.90;;;25.70;40.20;;;;;;5050495;28;20021;-40
2022/08/13 00:44:01;;;;;;;1.13;0.80;;;25.70;40.20;;;;;;5043794;28;20050;-40
2022/08/13 00:46:27;;;;;;;1.20;0.90;;;25.70;40.30;;;;;;5048501;28;20043;-42
2022/08/13 00:48:54;;;;;;;1.25;0.80;;;25.70;40.20;;;;;;5058013;28;20052;-40
2022/08/13 00:51:25;;;;;;;1.15;0.93;;;25.70;40.30;;;;;;5049377;28;20032;-40
2022/08/13 00:53:51;;;;;;;2.72;0.70;;;25.70;40.20;;;;;;5050559;28;20053;-40
2022/08/13 00:56:17;;;;;;;2.22;1.10;;;25.70;40.20;;;;;;5055820;28;20056;-41
2022/08/13 00:58:43;;;;;;;0.82;0.70;;;25.70;40.20;;;;;;5048607;28;20112;-42
2022/08/13 01:01:11;;;;;;;1.73;1.05;;;25.70;40.10;;;;;;5049602;28;20104;-45
2022/08/13 01:03:38;;;;;;;1.00;0.82;;;25.70;40.20;;;;;;5049588;28;20021;-40
2022/08/13 01:06:05;;;;;;;1.45;0.85;;;25.70;40.10;;;;;;5050218;28;20513;-42
2022/08/13 01:08:34;;;;;;;3.83;0.85;;;25.70;40.10;;;;;;5049507;28;20025;-41
2022/08/13 01:11:04;;;;;;;2.03;0.90;;;25.70;40.20;;;;;;5049501;28;20099;-40
2022/08/13 01:13:33;;;;;;;0.90;0.80;;;25.70;40.10;;;;;;5046933;28;21033;-45
2022/08/13 01:16:01;;;;;;;2.15;0.90;;;25.70;40.10;;;;;;5050255;28;20499;-40
2022/08/13 01:18:27;;;;;;;1.20;0.70;;;25.70;40.20;;;;;;5049864;28;20040;-41
2022/08/13 01:21:08;;;;;;;3.08;0.82;;;25.70;40.20;;;;;;5052125;28;20040;-41
2022/08/13 01:23:34;;;;;;;1.75;1.00;;;25.70;40.10;;;;;;5051176;28;20025;-40
2022/08/13 01:26:01;;;;;;;1.52;1.05;;;25.70;40.20;;;;;;5051142;28;20029;-42
2022/08/13 01:28:28;;;;;;;2.13;0.85;;;25.70;40.20;;;;;;5050846;28;20033;-40
2022/08/13 01:31:04;;;;;;;3.22;1.10;;;25.70;40.20;;;;;;5049961;28;20052;-43
2022/08/13 01:33:30;;;;;;;2.40;0.90;;;25.70;40.20;;;;;;5049861;28;20032;-40
2022/08/13 01:35:56;;;;;;;2.42;0.80;;;25.70;40.20;;;;;;5051253;28;20021;-40
2022/08/13 01:38:26;;;;;;;0.85;0.75;;;25.70;40.20;;;;;;5050866;28;20059;-40
2022/08/13 01:40:52;;;;;;;2.17;0.80;;;25.70;40.20;;;;;;5051479;28;20485;-41
2022/08/13 01:43:18;;;;;;;1.65;0.90;;;25.70;40.20;;;;;;5050683;28;20036;-40
2022/08/13 01:45:45;;;;;;;2.15;0.90;;;25.70;40.20;;;;;;5049348;28;20425;-40
2022/08/13 01:50:55;;;;;;;1.23;0.90;;;25.70;40.20;;;;;;5050491;28;20083;-40
2022/08/13 01:53:20;;;;;;;1.45;0.95;;;25.70;40.30;;;;;;5050689;28;20429;-41
2022/08/13 01:55:54;;;;;;;0.80;0.80;;;25.60;40.20;;;;;;5051513;28;20051;-42
2022/08/13 01:58:23;;;;;;;1.80;0.90;;;25.70;40.30;;;;;;5049991;28;20123;-45
2022/08/13 02:00:54;;;;;;;2.20;0.82;;;25.60;40.20;;;;;;5049271;28;20116;-40
2022/08/13 02:03:21;;;;;;;0.93;0.77;;;25.60;40.10;;;;;;5050353;28;20033;-41
2022/08/13 02:05:48;;;;;;;1.25;0.93;;;25.60;39.60;;;;;;5050307;28;20524;-41
2022/08/13 02:08:19;;;;;;;1.33;0.90;;;25.60;40.20;;;;;;5049940;28;20033;-44
2022/08/13 02:10:45;;;;;;;2.17;0.85;;;25.60;40.40;;;;;;5051469;28;20033;-42
2022/08/13 02:13:17;;;;;;;0.80;0.80;;;25.60;40.40;;;;;;5053693;28;20367;-46
2022/08/13 02:15:45;;;;;;;1.17;1.00;;;25.60;40.40;;;;;;5055014;28;20433;-41
2022/08/13 02:18:17;;;;;;;1.52;0.90;;;25.60;40.40;;;;;;5053065;28;20079;-46
2022/08/13 02:20:45;;;;;;;0.88;0.70;;;25.60;40.40;;;;;;5053416;28;20045;-40
2022/08/13 02:23:16;;;;;;;2.13;0.90;;;25.60;40.40;;;;;;5054408;28;20021;-45
2022/08/13 02:25:45;;;;;;;3.85;1.98;;;25.60;40.50;;;;;;5055002;28;20047;-40
2022/08/13 02:28:14;;;;;;;1.40;1.20;;;25.60;40.60;;;;;;5054122;28;20035;-45
2022/08/13 02:30:43;;;;;;;2.03;1.00;;;25.60;40.60;;;;;;5054377;28;20041;-40
2022/08/13 02:33:09;;;;;;;2.05;0.90;;;25.60;40.70;;;;;;5054260;28;20493;-40
2022/08/13 02:35:36;;;;;;;1.80;0.90;;;25.60;40.60;;;;;;5051874;28;20033;-40
2022/08/13 02:38:04;;;;;;;1.80;0.85;;;25.60;40.60;;;;;;5052876;28;20037;-40
2022/08/13 02:43:16;;;;;;;0.93;0.73;;;25.60;40.80;;;;;;5053872;28;20062;-45
2022/08/13 02:45:44;;;;;;;1.27;1.00;;;25.50;40.70;;;;;;5053742;28;20024;-40
2022/08/13 02:48:10;;;;;;;1.13;0.80;;;25.50;40.70;;;;;;5054269;28;20025;-40
2022/08/13 02:50:41;;;;;;;1.25;0.85;;;25.50;40.70;;;;;;5053072;28;20040;-42
2022/08/13 02:53:08;;;;;;;0.75;0.70;;;25.60;40.80;;;;;;5051757;28;20036;-40
2022/08/13 02:55:34;;;;;;;1.02;0.80;;;25.60;40.80;;;;;;5053150;28;20210;-41
2022/08/13 02:58:01;;;;;;;1.08;0.60;;;25.60;41.50;;;;;;5053920;28;20454;-41
2022/08/13 03:00:26;;;;;;;1.27;0.90;;;25.60;40.80;;;;;;5052387;28;20025;-40
2022/08/13 03:02:53;;;;;;;0.77;0.70;;;25.60;40.80;;;;;;5057605;28;20021;-40
2022/08/13 03:05:19;;;;;;;0.95;0.68;;;25.60;40.80;;;;;;5072854;28;20031;-40
2022/08/13 03:07:48;;;;;;;1.27;0.90;;;25.60;40.80;;;;;;5073929;28;20029;-41
2022/08/13 03:10:18;;;;;;;1.30;0.80;;;25.60;40.90;;;;;;5052624;28;20470;-45
2022/08/13 03:12:55;;;;;;;2.22;0.93;;;25.60;40.80;;;;;;5053855;28;20108;-40
2022/08/13 03:15:23;;;;;;;1.00;0.90;;;25.60;40.90;;;;;;5052840;28;20044;-40
2022/08/13 03:17:48;;;;;;;1.65;0.75;;;25.60;40.90;;;;;;5053948;28;20060;-40
2022/08/13 03:20:16;;;;;;;0.80;0.80;;;25.60;40.90;;;;;;5053291;28;20414;-43
2022/08/13 03:22:47;;;;;;;0.93;0.80;;;25.60;40.90;;;;;;5052750;28;20033;-40
2022/08/13 03:25:14;;;;;;;1.27;0.68;;;25.60;41.60;;;;;;5050846;28;20037;-40
2022/08/13 03:27:40;;;;;;;1.05;0.93;;;25.50;40.90;;;;;;5052930;28;20230;-41
2022/08/13 03:30:06;;;;;;;1.60;1.23;;;25.50;41.00;;;;;;5053536;28;20025;-40
2022/08/13 03:32:46;;;;;;;1.13;0.70;;;25.60;41.10;;;;;;5052093;28;20033;-41
2022/08/13 03:35:14;;;;;;;1.45;0.60;;;25.50;41.10;;;;;;5053392;28;20032;-41
2022/08/13 03:37:41;;;;;;;1.05;0.80;;;25.50;41.00;;;;;;5052549;28;20029;-42
2022/08/13 03:40:08;;;;;;;1.85;1.15;;;25.50;41.10;;;;;;5051063;28;20386;-40
2022/08/13 03:42:35;;;;;;;1.58;1.17;;;25.50;41.00;;;;;;5052535;28;20037;-40
2022/08/13 03:45:02;;;;;;;1.25;0.80;;;25.50;41.00;;;;;;5053162;28;20029;-40
2022/08/13 03:47:28;;;;;;;0.80;0.73;;;25.50;41.10;;;;;;5052390;28;20116;-40
2022/08/13 03:49:53;;;;;;;1.60;0.80;;;25.40;41.00;;;;;;5052722;28;20162;-41
2022/08/13 03:52:20;;;;;;;1.08;0.90;;;25.50;41.20;;;;;;5052235;28;20167;-43
2022/08/13 03:54:46;;;;;;;0.80;0.80;;;25.50;41.10;;;;;;5052218;28;20043;-40
2022/08/13 03:57:12;;;;;;;0.95;0.82;;;25.40;41.00;;;;;;5050038;28;20032;-41
2022/08/13 03:59:40;;;;;;;0.80;0.80;;;25.40;41.10;;;;;;5051930;28;20035;-43
2022/08/13 04:02:06;;;;;;;2.25;1.02;;;25.50;41.20;;;;;;5052794;28;20029;-41
2022/08/13 04:04:32;;;;;;;2.83;0.88;;;25.40;41.80;;;;;;5051098;28;20071;-40
2022/08/13 04:06:59;;;;;;;2.08;1.25;;;25.40;41.70;;;;;;5052639;28;20025;-40
2022/08/13 04:09:24;;;;;;;0.85;0.80;;;25.50;41.20;;;;;;5051760;28;20033;-40
2022/08/13 04:11:50;;;;;;;1.08;0.90;;;25.50;41.20;;;;;;5051077;28;20039;-41
2022/08/13 04:14:16;;;;;;;1.10;0.98;;;25.40;41.10;;;;;;5043949;28;20045;-40
2022/08/13 04:16:41;;;;;;;2.40;1.30;;;25.40;41.10;;;;;;5051469;28;20025;-40
2022/08/13 04:19:07;;;;;;;1.45;0.75;;;25.50;41.10;;;;;;5052246;28;20087;-40
2022/08/13 04:21:35;;;;;;;0.98;0.88;;;25.50;41.10;;;;;;5051758;28;20025;-40
2022/08/13 04:24:04;;;;;;;0.85;0.70;;;25.40;41.00;;;;;;5052406;28;20029;-40
2022/08/13 04:26:32;;;;;;;1.30;0.95;;;25.50;41.10;;;;;;5051708;28;20117;-40
2022/08/13 04:28:59;;;;;;;1.25;0.80;;;25.50;41.00;;;;;;5050832;28;20119;-41
2022/08/13 04:31:24;;;;;;;1.08;0.90;;;25.40;40.90;;;;;;5049861;28;20071;-40
2022/08/13 04:33:50;;;;;;;1.33;0.88;;;25.40;41.00;;;;;;5052299;28;20068;-40
2022/08/13 04:36:16;;;;;;;1.50;0.93;;;25.40;41.00;;;;;;5051881;28;20108;-40
2022/08/13 04:38:42;;;;;;;1.75;0.65;;;25.40;41.10;;;;;;5051237;28;20032;-40
2022/08/13 04:41:08;;;;;;;1.20;0.90;;;25.40;41.10;;;;;;5052225;28;20074;-40
2022/08/13 04:43:33;;;;;;;1.02;0.77;;;25.40;41.10;;;;;;5050207;28;20108;-40
2022/08/13 04:46:00;;;;;;;1.75;1.15;;;25.40;41.00;;;;;;5052204;28;20098;-40
2022/08/13 04:48:28;;;;;;;1.60;1.00;;;25.40;41.10;;;;;;5049437;28;20504;-40
2022/08/13 04:50:54;;;;;;;2.17;1.10;;;25.40;41.10;;;;;;5052016;28;20052;-40
2022/08/13 04:53:37;;;;;;;1.33;0.85;;;25.40;41.10;;;;;;5051612;28;20044;-43
2022/08/13 04:56:03;;;;;;;1.20;1.02;;;25.40;41.10;;;;;;5052056;28;20029;-40
2022/08/13 04:58:34;;;;;;;1.10;1.00;;;25.40;41.10;;;;;;5049917;28;20041;-40
2022/08/13 05:01:01;;;;;;;1.88;1.10;;;25.40;41.00;;;;;;5050336;28;20064;-41
2022/08/13 05:03:29;;;;;;;1.10;0.95;;;25.40;41.10;;;;;;5051026;28;20355;-40
2022/08/13 05:05:56;;;;;;;2.00;1.10;;;25.40;41.10;;;;;;5050272;28;20033;-40
2022/08/13 05:08:22;;;;;;;1.85;1.08;;;25.40;41.10;;;;;;5051429;28;20029;-46
2022/08/13 05:10:50;;;;;;;2.55;1.20;;;25.40;41.00;;;;;;5051325;28;20478;-40
2022/08/13 05:13:34;;;;;;;2.78;1.08;;;25.40;41.10;;;;;;5051566;28;20430;-40
2022/08/13 05:16:06;;;;;;;2.42;1.10;;;25.40;41.10;;;;;;5050496;28;20052;-40
2022/08/13 05:18:35;;;;;;;1.45;1.10;;;25.40;41.10;;;;;;5050825;28;20108;-40
2022/08/13 05:21:04;;;;;;;2.05;1.10;;;25.40;41.10;;;;;;5050013;28;20029;-40
2022/08/13 05:23:32;;;;;;;2.15;1.02;;;25.40;41.10;;;;;;5050802;28;20029;-40
2022/08/13 05:25:59;;;;;;;3.40;0.90;;;25.40;41.10;;;;;;5051681;28;20029;-40
2022/08/13 05:28:25;;;;;;;1.58;0.90;;;25.40;41.10;;;;;;5051053;28;20481;-46
2022/08/13 05:30:51;;;;;;;1.52;1.00;;;25.50;41.10;;;;;;5050895;28;20033;-40
2022/08/13 05:33:22;;;;;;;4.20;1.10;;;25.50;41.20;;;;;;5051628;28;20040;-40
2022/08/13 05:35:49;;;;;;;1.35;0.77;;;25.50;41.10;;;;;;5049493;28;20098;-42
2022/08/13 05:38:16;;;;;;;2.20;1.10;;;25.50;41.10;;;;;;5050254;28;20080;-40
2022/08/13 05:40:43;;;;;;;1.17;0.90;;;25.50;41.10;;;;;;5050640;28;20116;-41
2022/08/13 05:43:14;;;;;;;2.65;1.10;;;25.50;41.10;;;;;;5051736;28;20028;-40
2022/08/13 05:45:41;;;;;;;1.73;1.15;;;25.50;41.10;;;;;;5050061;28;20029;-43
2022/08/13 05:48:07;;;;;;;2.72;1.10;;;25.50;41.10;;;;;;5054271;28;20116;-43
2022/08/13 05:50:34;;;;;;;1.60;1.20;;;25.50;41.10;;;;;;5054229;28;20120;-40
2022/08/13 05:53:17;;;;;;;1.40;1.15;;;25.50;41.10;;;;;;5053614;28;20067;-41
2022/08/13 05:55:43;;;;;;;3.08;1.10;;;25.50;41.10;;;;;;5054370;28;20065;-40
2022/08/13 05:58:13;;;;;;;2.15;0.80;;;25.50;41.10;;;;;;5055128;28;20116;-40
2022/08/13 06:03:27;;;;;;;1.90;1.20;;;25.50;41.00;;;;;;5053310;28;20027;-44
2022/08/13 06:05:57;;;;;;;6.68;1.30;;;25.50;40.90;;;;;;5054584;28;20518;-42
2022/08/13 06:08:31;;;;;;;2.53;0.98;;;25.50;41.10;;;;;;5053419;28;20120;-43
2022/08/13 06:10:59;;;;;;;2.90;1.00;;;25.50;41.00;;;;;;5050334;28;20037;-47
2022/08/13 06:13:26;;;;;;;1.70;1.00;;;25.50;41.00;;;;;;5045772;28;20029;-47
2022/08/13 06:16:00;;;;;;;3.30;1.20;;;25.50;40.80;;;;;;5052224;28;20387;-41
2022/08/13 06:18:29;;;;;;;2.03;1.08;;;25.60;40.90;;;;;;5052150;28;20124;-46
2022/08/13 06:20:56;;;;;;;1.92;1.13;;;25.60;40.90;;;;;;5052931;28;20025;-41
2022/08/13 06:23:27;;;;;;;1.48;0.77;;;25.60;40.90;;;;;;5053037;28;20029;-43
2022/08/13 06:25:53;;;;;;;4.80;1.63;;;25.60;40.90;;;;;;5051154;28;20033;-41
2022/08/13 06:28:29;;;;;;;1.20;0.98;;;25.70;40.90;;;;;;5052745;28;20047;-40
2022/08/13 06:31:01;;;;;;;1.92;1.25;;;25.40;40.10;;;;;;5053644;28;20037;-42
2022/08/13 06:33:29;;;;;;;1.45;1.30;;;25.20;40.70;;;;;;5051898;28;20416;-47
2022/08/13 06:35:59;;;;;;;4.32;1.52;;;25.10;41.10;;;;;;5053817;28;20370;-42
2022/08/13 06:38:30;;;;;;;4.10;1.50;;;25.00;41.50;;;;;;5052955;28;20536;-45
2022/08/13 06:41:02;;;;;;;2.78;1.33;;;24.90;41.90;;;;;;5056175;28;20021;-42
2022/08/13 06:43:31;;;;;;;3.72;1.30;;;24.80;42.30;;;;;;5051107;28;20040;-48
2022/08/13 06:45:59;;;;;;;2.15;1.10;;;24.80;42.60;;;;;;5053377;28;20043;-44
2022/08/13 06:48:27;;;;;;;3.15;1.30;;;24.70;42.60;;;;;;5052415;28;20111;-50
2022/08/13 06:50:53;;;;;;;1.55;1.20;;;24.60;42.70;;;;;;5051311;28;20091;-44
2022/08/13 06:53:19;;;;;;;1.63;1.08;;;24.60;42.70;;;;;;5053153;28;20037;-43
2022/08/13 06:55:49;;;;;;;1.48;1.25;;;24.60;42.80;;;;;;5051863;28;20179;-44
2022/08/13 06:58:15;;;;;;;2.17;1.10;;;24.60;42.90;;;;;;5052288;28;20045;-45
2022/08/13 07:00:42;;;;;;;1.23;1.13;;;24.60;42.70;;;;;;5051206;28;20107;-46
2022/08/13 07:03:10;;;;;;;1.30;1.20;;;24.60;42.70;;;;;;5053014;28;20040;-42
2022/08/13 07:05:41;;;;;;;2.42;1.30;;;24.50;42.90;;;;;;5051677;28;20377;-44
2022/08/13 07:08:09;;;;;;;1.48;1.30;;;24.50;43.00;;;;;;5039447;28;20037;-41
2022/08/13 07:10:36;;;;;;;1.58;1.30;;;24.50;43.30;;;;;;5051300;28;20834;-42
2022/08/13 07:13:05;;;;;;;4.15;1.30;;;24.50;43.20;;;;;;5051501;28;20501;-41
2022/08/13 07:15:31;;;;;;;2.50;1.20;;;24.50;43.20;;;;;;5049677;28;20052;-48
2022/08/13 07:17:57;;;;;;;3.22;1.20;;;24.50;43.00;;;;;;5050447;28;20147;-41
2022/08/13 07:20:25;;;;;;;1.92;1.02;;;24.50;43.00;;;;;;5052573;28;20057;-42
2022/08/13 07:22:52;;;;;;;1.25;1.10;;;24.50;42.90;;;;;;5051766;28;20094;-41
2022/08/13 07:25:20;;;;;;;2.80;1.42;;;24.60;42.80;;;;;;5052070;28;20029;-41
2022/08/13 07:27:48;;;;;;;2.88;1.50;;;24.60;43.00;;;;;;5051213;28;20118;-45
2022/08/13 07:30:14;;;;;;;2.47;1.20;;;24.60;43.40;;;;;;5052142;28;20061;-41
2022/08/13 07:32:41;;;;;;;1.30;1.13;;;24.60;43.00;;;;;;5050717;28;20118;-42
2022/08/13 07:35:08;;;;;;;1.70;1.10;;;24.60;42.90;;;;;;5050857;28;20521;-42
2022/08/13 07:37:36;;;;;;;2.65;1.65;;;24.70;43.20;;;;;;5051357;28;20041;-43
2022/08/13 07:40:03;;;;;;;3.25;1.80;;;24.60;43.30;;;;;;5051253;28;20065;-46
2022/08/13 07:42:31;;;;;;;2.53;1.42;;;24.60;43.20;;;;;;5051724;28;20145;-46
2022/08/13 07:44:58;;;;;;;1.45;1.30;;;24.60;43.50;;;;;;5052542;28;20052;-42
2022/08/13 07:47:25;;;;;;;1.35;1.17;;;24.60;43.50;;;;;;5051009;28;20136;-45
2022/08/13 07:49:54;;;;;;;2.78;2.25;;;24.60;43.50;;;;;;5051247;28;20104;-42
2022/08/13 07:52:19;;;;;;;4.10;1.23;;;24.60;43.50;;;;;;5047587;28;20390;-40
2022/08/13 07:54:47;;;;;;;1.40;1.17;;;24.60;43.70;;;;;;5051366;28;20025;-44
2022/08/13 07:57:13;;;;;;;2.42;1.10;;;24.60;43.60;;;;;;5049167;28;20106;-41
2022/08/13 07:59:39;;;;;;;1.33;1.20;;;24.70;43.70;;;;;;5051774;28;20033;-41
2022/08/13 08:02:09;;;;;;;5.82;1.42;;;24.70;43.70;;;;;;5051231;28;20470;-41
2022/08/13 08:04:37;;;;;;;3.22;1.30;;;24.60;43.90;;;;;;5049472;28;20060;-42
2022/08/13 08:07:04;;;;;;;3.78;1.75;;;24.70;43.70;;;;;;5050956;28;20037;-42
2022/08/13 08:09:31;;;;;;;3.35;1.10;;;24.70;43.70;;;;;;5047829;28;20052;-50
2022/08/13 08:14:45;;;;;;;4.80;1.23;;;24.80;43.70;;;;;;5044318;28;20117;-41
2022/08/13 08:17:12;;;;;;;2.38;1.30;;;24.80;43.70;;;;;;5051301;28;20123;-42
2022/08/13 08:19:39;;;;;;;4.97;1.63;;;24.90;43.70;;;;;;5050897;28;20521;-44
2022/08/13 08:22:07;;;;;;;18.00;2.40;;;24.90;43.60;;;;;;5051133;28;20048;-41
2022/08/13 08:24:34;;;;;;;12.65;4.28;;;24.90;43.70;;;;;;5050822;28;20032;-50
2022/08/13 08:27:05;;;;;;;5.18;2.03;;;24.90;43.50;;;;;;5048885;28;20029;-41
2022/08/13 08:29:33;;;;;;;3.33;1.90;;;25.00;44.10;;;;;;5050890;28;20028;-45
2022/08/13 08:32:08;;;;;;;2.70;1.95;;;25.00;43.50;;;;;;5049867;28;20036;-44
2022/08/13 08:34:36;;;;;;;6.22;2.97;;;25.00;43.40;;;;;;5051273;28;20103;-49
2022/08/13 08:37:03;;;;;;;2.08;1.60;;;24.90;43.60;;;;;;5051178;28;20032;-43
2022/08/13 08:45:02;;;;;;;2.58;1.60;;;25.30;43.20;;;;;;5052529;28;20086;-41
2022/08/13 08:47:30;;;;;;;1.88;1.35;;;25.30;43.20;;;;;;5051087;28;20470;-40
2022/08/13 08:49:58;;;;;;;4.47;1.38;;;25.30;43.00;;;;;;5051694;28;20037;-40
2022/08/13 08:53:19;;;;;;;2.63;1.15;;;25.30;43.10;;;;;;5051077;28;20061;-43
2022/08/13 08:55:15;;;;;;;1.75;1.27;;;25.20;43.10;;;;;;5051020;28;20033;-41
2022/08/13 08:57:44;;;;;;;2.28;1.30;;;25.20;43.70;;;;;;5048512;28;20061;-41
2022/08/13 09:00:14;;;;;;;4.85;1.38;;;25.20;43.10;;;;;;5051782;28;20037;-40
2022/08/13 09:02:40;;;;;;;5.68;1.48;;;25.30;43.20;;;;;;5051161;28;20041;-43
2022/08/13 09:05:12;;;;;;;1.52;1.10;;;25.30;43.20;;;;;;5059005;28;20025;-43
2022/08/13 09:07:41;;;;;;;3.35;1.50;;;25.20;43.10;;;;;;5034045;28;20108;-41
2022/08/13 09:10:09;;;;;;;2.90;1.20;;;25.30;43.10;;;;;;5051610;28;20039;-43
2022/08/13 09:12:42;;;;;;;1.42;1.10;;;25.30;43.20;;;;;;5051062;28;20485;-44
2022/08/13 09:15:08;;;;;;;1.77;1.25;;;25.30;43.20;;;;;;5049361;28;20139;-41
2022/08/13 09:17:36;;;;;;;1.50;1.20;;;25.30;43.20;;;;;;5051680;28;20083;-44
2022/08/13 09:20:03;;;;;;;1.63;1.00;;;25.30;43.30;;;;;;5051304;28;20033;-42
2022/08/13 09:22:28;;;;;;;2.17;1.13;;;25.30;43.90;;;;;;5055514;28;20040;-41
2022/08/13 09:24:56;;;;;;;1.58;1.20;;;25.30;43.20;;;;;;5054606;28;20582;-41
2022/08/13 09:27:22;;;;;;;1.10;1.00;;;25.30;43.10;;;;;;5056184;28;20111;-41
2022/08/13 09:29:50;;;;;;;3.17;1.10;;;25.30;43.10;;;;;;5055240;28;20109;-41
2022/08/13 09:32:16;;;;;;;1.70;1.20;;;25.30;42.80;;;;;;5052861;28;20067;-45
2022/08/13 09:34:45;;;;;;;1.67;1.25;;;25.40;42.90;;;;;;5036971;28;20116;-42
2022/08/13 09:37:12;;;;;;;2.33;1.10;;;25.40;42.80;;;;;;5055566;28;20036;-45
2022/08/13 09:40:05;;;;;;;2.65;1.15;;;25.40;42.80;;;;;;5054264;28;20471;-46
2022/08/13 09:42:36;;;;;;;3.17;1.10;;;25.40;42.70;;;;;;5055629;28;20056;-43
2022/08/13 09:45:03;;;;;;;3.70;1.70;;;25.40;43.30;;;;;;5054806;28;20053;-41
2022/08/13 09:47:31;;;;;;;2.20;1.20;;;25.40;43.40;;;;;;5051308;28;20057;-40
2022/08/13 09:49:56;;;;;;;2.75;1.30;;;25.50;43.00;;;;;;5054228;28;20037;-41
2022/08/13 09:52:22;;;;;;;2.40;1.10;;;25.50;43.10;;;;;;5055066;28;20021;-41
2022/08/13 09:54:49;;;;;;;1.73;0.90;;;25.50;42.50;;;;;;5051921;28;20029;-41
2022/08/13 09:57:20;;;;;;;1.92;1.00;;;25.50;42.20;;;;;;5055314;28;20029;-41
2022/08/13 09:59:46;;;;;;;11.53;1.20;;;25.50;42.20;;;;;;5053688;28;20036;-42
2022/08/13 10:02:12;;;;;;;2.85;1.08;;;25.50;42.30;;;;;;5053261;28;20280;-43
2022/08/13 10:04:39;;;;;;;2.10;1.05;;;25.50;42.40;;;;;;5062777;28;20029;-49
2022/08/13 10:07:07;;;;;;;3.13;1.08;;;25.50;42.30;;;;;;5054781;28;20056;-41
2022/08/13 10:09:34;;;;;;;1.70;0.95;;;25.50;42.10;;;;;;5054529;28;20064;-43
2022/08/13 10:12:01;;;;;;;3.42;1.27;;;25.50;42.10;;;;;;5053606;28;20037;-44
2022/08/13 10:14:26;;;;;;;3.38;0.98;;;25.50;42.10;;;;;;5054479;28;20053;-44
2022/08/13 10:16:53;;;;;;;3.15;1.10;;;25.60;42.20;;;;;;5053580;28;20040;-42
2022/08/13 10:19:19;;;;;;;3.60;1.25;;;25.60;42.30;;;;;;5053056;28;20132;-43
2022/08/13 10:21:45;;;;;;;2.03;0.90;;;25.60;42.30;;;;;;5052609;28;20025;-42
2022/08/13 10:24:10;;;;;;;1.40;0.90;;;25.60;42.10;;;;;;5054655;28;20036;-42
2022/08/13 10:26:40;;;;;;;1.90;1.23;;;25.60;42.00;;;;;;5052770;28;20032;-45
2022/08/13 10:29:08;;;;;;;1.85;1.00;;;25.60;41.80;;;;;;5054017;28;20040;-47
2022/08/13 10:31:34;;;;;;;1.50;0.80;;;25.60;41.60;;;;;;5054165;28;20029;-43
2022/08/13 10:33:59;;;;;;;1.92;0.98;;;25.50;41.40;;;;;;5051509;28;20041;-46
2022/08/13 10:36:26;;;;;;;1.60;1.10;;;25.50;41.40;;;;;;5052915;28;20021;-44
2022/08/13 10:38:52;;;;;;;2.65;2.10;;;25.50;41.20;;;;;;5053672;28;20029;-42
2022/08/13 10:41:18;;;;;;;1.15;0.90;;;25.50;41.00;;;;;;5052188;28;20035;-44
2022/08/13 10:43:43;;;;;;;2.65;1.30;;;25.60;41.30;;;;;;5053666;28;20033;-42
2022/08/13 10:46:16;;;;;;;1.38;1.05;;;25.50;40.60;;;;;;5053694;28;20492;-45
2022/08/13 10:48:45;;;;;;;1.63;0.95;;;25.60;40.80;;;;;;5053242;28;20028;-43
2022/08/13 10:51:11;;;;;;;2.10;1.50;;;25.50;40.50;;;;;;5052012;28;20061;-46
2022/08/13 10:53:56;;;;;;;3.00;1.17;;;25.50;40.90;;;;;;5051448;28;20067;-45
2022/08/13 10:56:22;;;;;;;1.60;1.10;;;25.60;40.60;;;;;;5054078;28;20025;-44
2022/08/13 10:58:49;;;;;;;1.33;1.05;;;25.60;40.30;;;;;;5052933;28;20459;-43
2022/08/13 11:01:15;;;;;;;1.55;1.30;;;25.60;40.40;;;;;;5053705;28;20031;-43
2022/08/13 11:03:45;;;;;;;1.70;1.20;;;25.60;40.30;;;;;;5063340;28;20032;-48
2022/08/13 11:06:11;;;;;;;1.00;0.90;;;25.60;40.10;;;;;;5061956;28;20107;-42
2022/08/13 11:08:37;;;;;;;1.85;1.00;;;25.60;40.10;;;;;;5050789;28;20111;-46
2022/08/13 11:11:09;;;;;;;2.25;0.90;;;25.60;39.80;;;;;;5053132;28;20041;-46
2022/08/13 11:13:39;;;;;;;1.92;1.20;;;25.70;40.00;;;;;;5053379;28;20033;-48
2022/08/13 11:16:26;;;;;;;2.13;1.00;;;25.80;40.10;;;;;;5032908;28;20054;-45
2022/08/13 11:18:52;;;;;;;2.67;1.10;;;25.80;40.10;;;;;;5032175;28;20033;-42
2022/08/13 11:21:18;;;;;;;1.33;1.00;;;25.80;40.10;;;;;;5032501;28;20041;-47
2022/08/13 11:23:44;;;;;;;1.75;1.05;;;25.80;40.10;;;;;;5032786;28;20063;-44
2022/08/13 11:26:10;;;;;;;1.50;1.17;;;25.80;39.40;;;;;;5032023;28;20030;-42
2022/08/13 11:28:36;;;;;;;3.05;1.25;;;25.90;39.50;;;;;;5033247;28;20033;-44
2022/08/13 11:31:02;;;;;;;2.13;0.95;;;25.90;38.80;;;;;;5031896;28;20038;-42
2022/08/13 11:33:27;;;;;;;1.13;0.90;;;25.90;39.30;;;;;;5033409;28;20052;-43
2022/08/13 11:35:53;;;;;;;0.95;0.82;;;25.90;39.30;;;;;;5032874;28;20040;-42
2022/08/13 11:38:21;;;;;;;2.47;1.08;;;25.90;39.30;;;;;;5032360;28;20041;-41
2022/08/13 11:40:53;;;;;;;1.77;1.00;;;25.90;39.30;;;;;;5014699;28;20367;-45
2022/08/13 11:43:26;;;;;;;1.35;1.08;;;25.90;39.20;;;;;;5031832;28;20032;-43
2022/08/13 11:45:52;;;;;;;3.20;1.10;;;25.90;39.20;;;;;;5031355;28;20029;-43
2022/08/13 11:48:19;;;;;;;1.50;1.05;;;26.00;39.00;;;;;;5032985;28;20062;-43
2022/08/13 11:50:45;;;;;;;3.38;1.00;;;26.00;38.90;;;;;;5032104;28;20033;-43
2022/08/13 11:53:11;;;;;;;2.63;1.10;;;26.00;38.90;;;;;;5031853;28;20057;-46
2022/08/13 11:55:37;;;;;;;2.38;1.08;;;26.00;39.00;;;;;;5032989;28;20061;-43
2022/08/13 11:58:05;;;;;;;1.75;0.93;;;26.00;38.70;;;;;;5031786;28;20061;-41
2022/08/13 12:00:32;;;;;;;1.20;1.00;;;26.00;38.40;;;;;;5031092;28;20116;-42
2022/08/13 12:02:58;;;;;;;2.17;1.25;;;26.10;38.30;;;;;;5033951;28;20056;-41
2022/08/13 12:05:30;;;;;;;1.50;1.10;;;26.10;38.40;;;;;;5069120;28;20883;-43
2022/08/13 12:07:56;;;;;;;2.65;1.10;;;26.10;37.70;;;;;;5068608;28;20051;-41
2022/08/13 12:10:22;;;;;;;3.17;1.00;;;26.20;38.20;;;;;;5068328;28;20021;-43
2022/08/13 12:12:48;;;;;;;6.35;1.23;;;26.20;38.50;;;;;;5068343;28;20036;-42
2022/08/13 12:15:15;;;;;;;1.33;1.00;;;26.10;38.40;;;;;;5069356;28;20056;-42
2022/08/13 12:17:44;;;;;;;4.30;1.10;;;26.20;38.20;;;;;;5066542;28;20036;-48
2022/08/13 12:20:13;;;;;;;2.50;1.10;;;26.20;38.10;;;;;;5068085;28;20031;-41
2022/08/13 12:22:40;;;;;;;1.33;1.00;;;26.30;38.20;;;;;;5069125;28;20029;-45
2022/08/13 12:25:07;;;;;;;2.72;1.17;;;26.30;38.40;;;;;;5067020;28;20024;-43
2022/08/13 12:27:34;;;;;;;1.40;0.93;;;26.20;38.60;;;;;;5067838;28;20090;-42
2022/08/13 12:30:00;;;;;;;1.20;0.90;;;26.30;38.20;;;;;;5066352;28;20032;-45
2022/08/13 12:32:26;;;;;;;2.00;0.90;;;26.20;38.30;;;;;;5066829;28;20039;-42
2022/08/13 12:34:51;;;;;;;1.35;0.95;;;26.20;38.40;;;;;;5068240;28;20359;-41
2022/08/13 12:37:17;;;;;;;1.20;1.00;;;26.20;38.60;;;;;;5068604;28;20027;-42
2022/08/13 12:39:43;;;;;;;1.38;1.00;;;26.10;38.50;;;;;;5067423;28;20047;-48
2022/08/13 12:42:08;;;;;;;2.05;1.02;;;26.10;38.70;;;;;;5068318;28;20108;-41
2022/08/13 12:44:34;;;;;;;1.10;1.00;;;26.10;38.70;;;;;;5067581;28;20481;-44
2022/08/13 12:47:00;;;;;;;1.80;1.10;;;26.10;38.80;;;;;;5067619;28;20478;-42
2022/08/13 12:49:26;;;;;;;1.90;1.02;;;26.10;38.80;;;;;;5067118;28;20033;-42
2022/08/13 12:51:51;;;;;;;2.72;0.95;;;26.10;38.30;;;;;;5067695;28;20099;-43
2022/08/13 12:54:17;;;;;;;3.58;1.08;;;26.20;38.70;;;;;;5068353;28;20524;-42
2022/08/13 12:56:43;;;;;;;0.80;0.80;;;26.20;38.50;;;;;;5065730;28;20024;-44
2022/08/13 12:59:09;;;;;;;4.32;1.10;;;26.20;38.20;;;;;;5077150;28;20036;-41
2022/08/13 13:01:34;;;;;;;4.25;1.63;;;26.20;38.20;;;;;;5088613;28;20028;-41
2022/08/13 13:04:00;;;;;;;4.15;1.15;;;26.20;38.40;;;;;;5068462;28;20048;-44
2022/08/13 13:06:26;;;;;;;1.98;1.10;;;26.20;38.80;;;;;;5065805;28;20422;-41
2022/08/13 13:08:52;;;;;;;2.63;1.00;;;26.30;37.90;;;;;;5067156;28;20032;-43
2022/08/13 13:11:17;;;;;;;2.63;1.40;;;26.20;38.30;;;;;;5067132;28;20051;-41
2022/08/13 13:13:48;;;;;;;2.42;0.85;;;26.30;37.90;;;;;;5067815;28;20481;-44